Time;durP1;ratioP1;P1;durP2;ratioP2;P2;SDS_P1;SDS_P2;PMS_P1;PMS_P2;Temp;Humidity;BMP_temperature;BMP_pressure;BME280_temperature;BME280_humidity;BME280_pressure;Samples;Min_cycle;Max_cycle;Signal;HPM_P1;HPM_P2
2022/01/07 00:02:03;;;;;;;0.28;0.28;;;;;;;-0.98;100.00;100897.03;5055627;28;20053;-84
2022/01/07 00:04:38;;;;;;;0.20;0.20;;;;;;;-1.03;100.00;100886.94;5041501;28;20052;-84
2022/01/07 00:07:11;;;;;;;0.20;0.20;;;;;;;-1.07;100.00;100882.19;5046174;28;20033;-83
2022/01/07 00:09:45;;;;;;;0.20;0.20;;;;;;;-1.06;100.00;100890.00;5043368;28;20052;-84
2022/01/07 00:12:21;;;;;;;0.20;0.20;;;;;;;-1.05;100.00;100886.31;5049559;28;20088;-85
2022/01/07 00:14:54;;;;;;;0.20;0.20;;;;;;;-1.18;100.00;100874.75;5044122;28;20056;-84
2022/01/07 00:17:27;;;;;;;0.20;0.20;;;;;;;-1.12;100.00;100881.94;5044681;28;20057;-85
2022/01/07 00:20:04;;;;;;;0.20;0.20;;;;;;;-1.19;100.00;100868.56;5054134;28;20055;-83
2022/01/07 00:22:32;;;;;;;0.20;0.20;;;;;;;-1.17;100.00;100868.34;5040069;28;20051;-85
2022/01/07 00:25:08;;;;;;;0.20;0.20;;;;;;;-1.39;100.00;100825.75;5042320;28;20057;-83
2022/01/07 00:27:37;;;;;;;0.20;0.20;;;;;;;-1.12;100.00;100872.09;5048316;28;20056;-84
2022/01/07 00:30:13;;;;;;;0.20;0.20;;;;;;;-1.27;100.00;100845.53;5045311;28;20064;-84
2022/01/07 00:32:46;;;;;;;0.22;0.22;;;;;;;-1.19;100.00;100855.19;5046848;28;20037;-84
2022/01/07 00:35:22;;;;;;;0.20;0.20;;;;;;;-1.16;100.00;100860.16;5038822;28;20049;-84
2022/01/07 00:37:51;;;;;;;0.30;0.30;;;;;;;-1.16;100.00;100859.31;5040548;28;20836;-84
2022/01/07 00:40:21;;;;;;;0.20;0.20;;;;;;;-1.22;100.00;100852.94;5040073;28;20474;-85
2022/01/07 00:42:55;;;;;;;0.30;0.30;;;;;;;-1.21;100.00;100859.94;5044151;28;20041;-84
2022/01/07 00:45:29;;;;;;;0.20;0.20;;;;;;;-1.19;100.00;100849.84;5050932;28;20049;-84
2022/01/07 00:47:58;;;;;;;0.25;0.25;;;;;;;-1.23;100.00;100838.75;5044545;28;20045;-84
2022/01/07 00:50:33;;;;;;;0.30;0.30;;;;;;;-1.21;100.00;100833.22;5054332;28;20412;-84
2022/01/07 00:53:06;;;;;;;0.20;0.20;;;;;;;-1.21;100.00;100831.38;5042869;28;20053;-85
2022/01/07 00:55:39;;;;;;;0.30;0.30;;;;;;;-1.31;100.00;100801.53;5053540;28;20052;-85
2022/01/07 00:58:13;;;;;;;0.30;0.30;;;;;;;-1.16;100.00;100829.94;5047878;28;20053;-85
2022/01/07 01:00:46;;;;;;;0.20;0.20;;;;;;;-1.16;100.00;100824.59;5050570;28;20060;-84
2022/01/07 01:03:14;;;;;;;0.30;0.30;;;;;;;-1.16;100.00;100825.44;5050524;28;20052;-85
2022/01/07 01:05:49;;;;;;;0.20;0.20;;;;;;;-1.16;100.00;100817.44;5048667;28;20382;-84
2022/01/07 01:08:22;;;;;;;0.20;0.20;;;;;;;-1.23;100.00;100806.72;5041771;28;20048;-86
2022/01/07 01:10:51;;;;;;;0.20;0.20;;;;;;;-1.15;100.00;100813.72;5045266;28;20041;-85
2022/01/07 01:13:24;;;;;;;0.30;0.30;;;;;;;-1.16;100.00;100800.56;5043970;28;20084;-84
2022/01/07 01:15:57;;;;;;;0.20;0.20;;;;;;;-1.18;100.00;100797.28;5045578;28;20053;-83
2022/01/07 01:18:30;;;;;;;0.20;0.20;;;;;;;-1.17;100.00;100801.59;5041050;28;20042;-84
2022/01/07 01:21:05;;;;;;;0.20;0.20;;;;;;;-1.17;100.00;100791.75;5041886;28;20079;-83
2022/01/07 01:23:40;;;;;;;0.20;0.20;;;;;;;-1.13;100.00;100779.66;5045525;28;20048;-85
2022/01/07 01:26:13;;;;;;;0.28;0.28;;;;;;;-1.08;100.00;100785.22;5048545;28;20060;-85
2022/01/07 01:28:47;;;;;;;0.28;0.28;;;;;;;-1.09;100.00;100772.88;5052503;28;20045;-85
2022/01/07 01:31:17;;;;;;;0.20;0.20;;;;;;;-1.07;100.00;100780.69;5044026;28;20049;-84
2022/01/07 01:33:46;;;;;;;0.17;0.17;;;;;;;-1.08;100.00;100777.19;5049391;28;20059;-85
2022/01/07 01:36:16;;;;;;;0.20;0.20;;;;;;;-1.06;100.00;100763.66;5049330;28;20063;-86
2022/01/07 01:38:49;;;;;;;0.20;0.20;;;;;;;-1.04;100.00;100753.56;5042992;28;20052;-86
2022/01/07 01:41:23;;;;;;;0.20;0.20;;;;;;;-1.11;100.00;100742.03;5043465;28;20060;-86
2022/01/07 01:43:56;;;;;;;0.25;0.25;;;;;;;-1.05;100.00;100757.25;5044313;28;20044;-86
2022/01/07 01:46:29;;;;;;;0.20;0.20;;;;;;;-1.05;100.00;100758.09;5053607;28;20049;-85
2022/01/07 01:49:04;;;;;;;0.20;0.20;;;;;;;-1.00;100.00;100757.47;5044531;28;20136;-85
2022/01/07 01:51:38;;;;;;;0.20;0.20;;;;;;;-0.95;100.00;100749.69;5047059;28;20507;-84
2022/01/07 01:54:12;;;;;;;0.25;0.25;;;;;;;-0.92;100.00;100741.28;5048061;28;20409;-85
2022/01/07 01:56:45;;;;;;;0.20;0.20;;;;;;;-0.85;100.00;100741.28;5057726;28;20056;-84
2022/01/07 01:59:23;;;;;;;0.20;0.20;;;;;;;-0.90;100.00;100727.69;5055385;28;20044;-85
2022/01/07 02:01:57;;;;;;;0.20;0.20;;;;;;;-0.84;100.00;100726.91;5063388;28;20068;-85
2022/01/07 02:04:31;;;;;;;0.20;0.20;;;;;;;-0.92;100.00;100721.75;5052302;28;20052;-86
2022/01/07 02:07:07;;;;;;;0.20;0.20;;;;;;;-0.79;100.00;100731.63;5050651;28;20503;-85
2022/01/07 02:09:40;;;;;;;0.20;0.20;;;;;;;-0.83;100.00;100725.06;5063836;28;20374;-85
2022/01/07 02:12:14;;;;;;;0.20;0.20;;;;;;;-0.79;100.00;100720.94;5051266;28;20393;-85
2022/01/07 02:14:51;;;;;;;0.30;0.30;;;;;;;-0.78;100.00;100714.59;5049411;28;20498;-86
2022/01/07 02:17:25;;;;;;;0.30;0.30;;;;;;;-0.72;100.00;100703.06;5041749;28;20402;-84
2022/01/07 02:19:59;;;;;;;0.25;0.25;;;;;;;-0.80;100.00;100696.09;5057074;28;20053;-85
2022/01/07 02:22:33;;;;;;;0.20;0.20;;;;;;;-0.71;100.00;100708.19;5051216;28;20048;-87
2022/01/07 02:25:07;;;;;;;0.30;0.30;;;;;;;-0.70;100.00;100707.19;5045851;28;20049;-85
2022/01/07 02:27:42;;;;;;;0.20;0.20;;;;;;;-0.69;100.00;100700.81;5049193;28;20052;-85
2022/01/07 02:30:18;;;;;;;0.30;0.30;;;;;;;-0.74;100.00;100700.59;5047613;28;20402;-86
2022/01/07 02:32:47;;;;;;;0.25;0.25;;;;;;;-0.77;100.00;100684.16;5048809;28;20041;-84
2022/01/07 02:35:24;;;;;;;0.30;0.30;;;;;;;-0.63;100.00;100693.81;5044672;28;20048;-85
2022/01/07 02:37:53;;;;;;;0.22;0.22;;;;;;;-0.68;100.00;100690.94;5043968;28;20055;-87
2022/01/07 02:40:21;;;;;;;0.28;0.28;;;;;;;-0.61;100.00;100690.94;5058839;28;20044;-85
2022/01/07 02:42:55;;;;;;;0.20;0.20;;;;;;;-0.62;100.00;100678.59;5049243;28;20045;-86
2022/01/07 02:45:29;;;;;;;0.20;0.20;;;;;;;-0.67;100.00;100686.44;5047420;28;20061;-86
2022/01/07 02:48:03;;;;;;;0.30;0.30;;;;;;;-0.64;100.00;100680.66;5042591;28;20053;-85
2022/01/07 02:50:39;;;;;;;0.20;0.20;;;;;;;-0.64;100.00;100681.47;5043120;28;20048;-86
2022/01/07 02:53:13;;;;;;;0.15;0.15;;;;;;;-0.65;100.00;100662.97;5049446;28;20054;-84
2022/01/07 02:55:46;;;;;;;0.20;0.20;;;;;;;-0.68;100.00;100669.56;5048325;28;21741;-86
2022/01/07 02:58:19;;;;;;;0.20;0.20;;;;;;;-0.63;100.00;100666.28;5049010;28;20061;-85
2022/01/07 03:00:52;;;;;;;0.20;0.20;;;;;;;-0.63;100.00;100661.75;5043473;28;20477;-86
2022/01/07 03:03:26;;;;;;;0.20;0.20;;;;;;;-0.66;100.00;100659.50;5041637;28;20049;-86
2022/01/07 03:05:55;;;;;;;0.20;0.20;;;;;;;-0.63;100.00;100647.56;5043208;28;20056;-86
2022/01/07 03:08:23;;;;;;;0.30;0.30;;;;;;;-0.63;100.00;100648.38;5045145;28;20059;-86
2022/01/07 03:10:56;;;;;;;0.20;0.20;;;;;;;-0.63;100.00;100653.72;5043332;28;20691;-86
2022/01/07 03:13:30;;;;;;;0.20;0.20;;;;;;;-0.60;100.00;100644.47;5047596;28;20044;-84
2022/01/07 03:16:03;;;;;;;0.22;0.22;;;;;;;-0.57;100.00;100638.72;5048423;28;20056;-85
2022/01/07 03:18:37;;;;;;;0.20;0.20;;;;;;;-0.62;100.00;100634.00;5038903;28;20473;-85
2022/01/07 03:21:11;;;;;;;0.17;0.17;;;;;;;-0.57;100.00;100630.69;5049830;28;20405;-85
2022/01/07 03:23:45;;;;;;;0.13;0.13;;;;;;;-0.48;100.00;100628.63;5043832;28;20036;-85
2022/01/07 03:26:18;;;;;;;0.20;0.20;;;;;;;-0.48;100.00;100624.13;5052488;28;20061;-86
2022/01/07 03:28:47;;;;;;;0.20;0.20;;;;;;;-0.52;100.00;100626.38;5042176;28;20055;-85
2022/01/07 03:31:21;;;;;;;0.30;0.30;;;;;;;-0.47;100.00;100628.44;5049549;28;20048;-84
2022/01/07 03:33:54;;;;;;;0.20;0.20;;;;;;;-0.50;100.00;100625.34;5048617;28;20043;-85
2022/01/07 03:36:29;;;;;;;0.25;0.25;;;;;;;-0.50;100.00;100615.47;5046784;28;20061;-86
2022/01/07 03:39:03;;;;;;;0.20;0.20;;;;;;;-0.45;100.00;100620.22;5048065;28;20049;-86
2022/01/07 03:41:36;;;;;;;0.20;0.20;;;;;;;-0.46;100.00;100607.88;5048179;28;20041;-85
2022/01/07 03:44:09;;;;;;;0.20;0.20;;;;;;;-0.42;100.00;100601.06;5048562;28;20053;-86
2022/01/07 03:46:43;;;;;;;0.20;0.20;;;;;;;-0.52;100.00;100591.63;5048827;28;20659;-86
2022/01/07 03:49:16;;;;;;;0.10;0.10;;;;;;;-0.50;100.00;100593.28;5045723;28;20072;-85
2022/01/07 03:51:45;;;;;;;0.20;0.20;;;;;;;-0.50;100.00;100591.41;5046602;28;20049;-86
2022/01/07 03:54:19;;;;;;;0.20;0.20;;;;;;;-0.53;100.00;100586.47;5045849;28;20052;-86
2022/01/07 03:56:52;;;;;;;0.10;0.10;;;;;;;-0.58;100.00;100581.78;5044413;28;20053;-84
2022/01/07 03:59:26;;;;;;;0.25;0.25;;;;;;;-0.58;100.00;100573.75;5053390;28;20056;-84
2022/01/07 04:01:59;;;;;;;0.20;0.20;;;;;;;-0.62;100.00;100580.53;5043660;28;20474;-85
2022/01/07 04:04:32;;;;;;;0.20;0.20;;;;;;;-0.65;100.00;100570.25;5050199;28;20047;-85
2022/01/07 04:07:02;;;;;;;0.10;0.10;;;;;;;-0.61;100.00;100571.47;5048502;28;20055;-85
2022/01/07 04:09:35;;;;;;;0.20;0.20;;;;;;;-0.63;100.00;100572.75;5045492;28;20049;-83
2022/01/07 04:12:04;;;;;;;0.20;0.20;;;;;;;-0.63;100.00;100570.88;5046451;28;20041;-84
2022/01/07 04:14:32;;;;;;;0.20;0.20;;;;;;;-0.61;100.00;100566.13;5048060;28;20052;-83
2022/01/07 04:17:07;;;;;;;0.20;0.20;;;;;;;-0.66;100.00;100549.06;5044822;28;20068;-84
2022/01/07 04:19:40;;;;;;;0.20;0.20;;;;;;;-0.64;100.00;100553.19;5053648;28;20041;-85
2022/01/07 04:22:15;;;;;;;0.20;0.20;;;;;;;-0.58;100.00;100557.72;5043886;28;20040;-84
2022/01/07 04:24:48;;;;;;;0.20;0.20;;;;;;;-0.58;100.00;100548.84;5056321;28;20052;-84
2022/01/07 04:27:22;;;;;;;0.20;0.20;;;;;;;-0.58;100.00;100556.88;5045036;28;20060;-86
2022/01/07 04:29:50;;;;;;;0.20;0.20;;;;;;;-0.59;100.00;100556.06;5063736;28;20053;-84
2022/01/07 04:32:23;;;;;;;0.30;0.30;;;;;;;-0.56;100.00;100549.47;5047698;28;20045;-85
2022/01/07 04:34:56;;;;;;;0.10;0.10;;;;;;;-0.51;100.00;100557.72;5043872;28;20053;-86
2022/01/07 04:37:31;;;;;;;0.20;0.20;;;;;;;-0.52;100.00;100548.03;5053981;28;20068;-85
2022/01/07 04:40:06;;;;;;;0.20;0.20;;;;;;;-0.47;100.00;100548.25;5054233;28;20715;-84
2022/01/07 04:42:34;;;;;;;0.20;0.20;;;;;;;-0.50;100.00;100550.50;5050986;28;20398;-86
2022/01/07 04:45:08;;;;;;;0.20;0.20;;;;;;;-0.53;100.00;100546.38;5050256;28;20040;-85
2022/01/07 04:47:37;;;;;;;0.20;0.20;;;;;;;-0.51;100.00;100541.66;5050692;28;20051;-85
2022/01/07 04:50:12;;;;;;;0.30;0.30;;;;;;;-0.49;100.00;100544.94;5052323;28;20043;-85
2022/01/07 04:52:47;;;;;;;0.20;0.20;;;;;;;-0.54;100.00;100532.22;5045162;28;20044;-84
2022/01/07 04:55:23;;;;;;;0.17;0.17;;;;;;;-0.48;100.00;100527.03;5049161;28;20042;-85
2022/01/07 04:57:57;;;;;;;0.13;0.13;;;;;;;-0.52;100.00;100518.63;5046881;28;20052;-85
2022/01/07 05:00:25;;;;;;;0.20;0.20;;;;;;;-0.55;100.00;100517.19;5054753;28;20474;-85
2022/01/07 05:02:58;;;;;;;0.13;0.13;;;;;;;-0.48;100.00;100511.84;5073125;28;20052;-84
2022/01/07 05:05:32;;;;;;;0.20;0.20;;;;;;;-0.41;100.00;100530.53;5053434;28;20269;-85
2022/01/07 05:08:08;;;;;;;0.10;0.10;;;;;;;-0.42;100.00;100518.19;5048175;28;20045;-85
2022/01/07 05:10:42;;;;;;;0.20;0.20;;;;;;;-0.37;100.00;100523.72;5045955;28;20064;-84
2022/01/07 05:13:15;;;;;;;0.20;0.20;;;;;;;-0.43;100.00;100514.69;5049364;28;20381;-85
2022/01/07 05:15:48;;;;;;;0.20;0.20;;;;;;;-0.35;100.00;100518.97;5052775;28;20052;-84
2022/01/07 05:18:16;;;;;;;0.20;0.20;;;;;;;-0.34;100.00;100515.28;5050317;28;20397;-85
2022/01/07 05:20:46;;;;;;;0.20;0.20;;;;;;;-0.47;100.00;100509.97;5056140;28;20049;-84
2022/01/07 05:23:16;;;;;;;0.20;0.20;;;;;;;-0.48;100.00;100503.81;5054006;28;20048;-85
2022/01/07 05:25:49;;;;;;;0.20;0.20;;;;;;;-0.56;100.00;100507.53;5049261;28;20044;-85
2022/01/07 05:28:17;;;;;;;0.20;0.20;;;;;;;-0.58;100.00;100500.75;5048043;28;20493;-84
2022/01/07 05:30:50;;;;;;;0.20;0.20;;;;;;;-0.57;100.00;100489.03;5048074;28;20059;-84
2022/01/07 05:33:18;;;;;;;0.20;0.20;;;;;;;-0.62;100.00;100486.16;5051453;28;20051;-84
2022/01/07 05:35:52;;;;;;;0.25;0.25;;;;;;;-0.75;100.00;100468.31;5065317;28;20061;-84
2022/01/07 05:38:26;;;;;;;0.30;0.30;;;;;;;-0.70;100.00;100482.69;5048357;28;20640;-85
2022/01/07 05:40:59;;;;;;;0.17;0.17;;;;;;;-0.69;100.00;100476.31;5056299;28;20044;-85
2022/01/07 05:43:32;;;;;;;0.10;0.10;;;;;;;-0.71;100.00;100472.22;5046848;28;20042;-83
2022/01/07 05:46:08;;;;;;;0.20;0.20;;;;;;;-0.67;100.00;100464.59;5041670;28;20072;-84
2022/01/07 05:48:41;;;;;;;0.20;0.20;;;;;;;-0.62;100.00;100446.91;5043014;28;20056;-84
2022/01/07 05:51:15;;;;;;;0.20;0.20;;;;;;;-0.70;100.00;100450.63;5050515;28;20040;-85
2022/01/07 05:53:44;;;;;;;0.20;0.20;;;;;;;-0.71;100.00;100440.94;5065042;28;20052;-84
2022/01/07 05:56:18;;;;;;;0.20;0.20;;;;;;;-0.75;100.00;100434.38;5049113;28;20052;-84
2022/01/07 05:58:51;;;;;;;0.20;0.20;;;;;;;-0.77;100.00;100435.66;5040429;28;20049;-83
2022/01/07 06:01:24;;;;;;;0.20;0.20;;;;;;;-0.72;100.00;100431.31;5045618;28;20685;-82
2022/01/07 06:03:57;;;;;;;0.20;0.20;;;;;;;-0.79;100.00;100427.81;5040526;28;20045;-85
2022/01/07 06:06:30;;;;;;;0.20;0.20;;;;;;;-0.80;100.00;100439.56;5050729;28;20056;-84
2022/01/07 06:09:05;;;;;;;0.22;0.22;;;;;;;-0.80;100.00;100438.72;5044638;28;20084;-83
2022/01/07 06:11:38;;;;;;;0.20;0.20;;;;;;;-0.85;100.00;100426.00;5047886;28;20049;-82
2022/01/07 06:14:11;;;;;;;0.20;0.20;;;;;;;-0.81;100.00;100413.06;5043541;28;20060;-84
2022/01/07 06:16:44;;;;;;;0.20;0.20;;;;;;;-0.80;100.00;100410.19;5053235;28;20072;-84
2022/01/07 06:19:18;;;;;;;0.20;0.20;;;;;;;-0.85;100.00;100401.97;5036041;28;20599;-83
2022/01/07 06:21:51;;;;;;;0.20;0.20;;;;;;;-0.83;100.00;100405.22;5043818;28;20047;-83
2022/01/07 06:24:21;;;;;;;0.20;0.20;;;;;;;-0.83;100.00;100407.91;5047807;28;20643;-84
2022/01/07 06:26:49;;;;;;;0.20;0.20;;;;;;;-0.88;100.00;100403.22;5054882;28;20057;-84
2022/01/07 06:29:22;;;;;;;0.20;0.20;;;;;;;-0.86;100.00;100405.66;5044292;28;20423;-84
2022/01/07 06:31:55;;;;;;;0.20;0.20;;;;;;;-0.86;100.00;100406.50;5047473;28;20461;-84
2022/01/07 06:34:29;;;;;;;0.20;0.20;;;;;;;-0.89;100.00;100396.22;5050123;28;20053;-83
2022/01/07 06:37:03;;;;;;;0.20;0.20;;;;;;;-0.81;100.00;100405.06;5048756;28;20049;-84
2022/01/07 06:39:32;;;;;;;0.20;0.20;;;;;;;-0.87;100.00;100391.50;5045476;28;20040;-83
2022/01/07 06:42:07;;;;;;;0.20;0.20;;;;;;;-0.88;100.00;100384.50;5045511;28;20477;-83
2022/01/07 06:44:40;;;;;;;0.30;0.30;;;;;;;-0.84;100.00;100381.41;5047963;28;20052;-83
2022/01/07 06:47:13;;;;;;;0.10;0.10;;;;;;;-0.83;100.00;100385.72;5051445;28;20053;-84
2022/01/07 06:49:46;;;;;;;0.20;0.20;;;;;;;-0.88;100.00;100383.69;5049888;28;20045;-84
2022/01/07 06:52:15;;;;;;;0.20;0.20;;;;;;;-0.87;100.00;100382.63;5041106;28;20045;-84
2022/01/07 06:54:49;;;;;;;0.20;0.20;;;;;;;-0.86;100.00;100370.94;5048794;28;20645;-84
2022/01/07 06:57:22;;;;;;;0.28;0.28;;;;;;;-0.89;100.00;100374.84;5044273;28;20049;-83
2022/01/07 06:59:51;;;;;;;0.17;0.17;;;;;;;-0.82;100.00;100374.00;5044039;28;20770;-84
2022/01/07 07:02:24;;;;;;;0.10;0.10;;;;;;;-0.81;100.00;100365.78;5055634;28;20048;-83
2022/01/07 07:04:57;;;;;;;0.20;0.20;;;;;;;-0.81;100.00;100365.78;5036709;28;20079;-83
2022/01/07 07:07:30;;;;;;;0.20;0.20;;;;;;;-0.76;100.00;100365.97;5044749;28;20048;-84
2022/01/07 07:10:06;;;;;;;0.13;0.13;;;;;;;-0.81;100.00;100356.97;5041372;28;20053;-83
2022/01/07 07:12:34;;;;;;;0.10;0.10;;;;;;;-0.83;100.00;100346.44;5058733;28;20052;-83
2022/01/07 07:15:07;;;;;;;0.10;0.10;;;;;;;-0.88;100.00;100362.31;5050367;28;20048;-84
2022/01/07 07:17:41;;;;;;;0.20;0.20;;;;;;;-0.86;100.00;100355.75;5039255;28;20042;-83
2022/01/07 07:20:11;;;;;;;0.20;0.20;;;;;;;-0.90;100.00;100359.88;5044789;28;20052;-83
2022/01/07 07:22:44;;;;;;;0.20;0.20;;;;;;;-0.87;100.00;100354.09;5051417;28;20060;-84
2022/01/07 07:25:20;;;;;;;0.30;0.30;;;;;;;-0.91;100.00;100336.84;5049435;28;20540;-83
2022/01/07 07:27:48;;;;;;;0.20;0.20;;;;;;;-0.79;100.00;100336.97;5051628;28;20055;-84
2022/01/07 07:30:21;;;;;;;0.20;0.20;;;;;;;-0.86;100.00;100350.41;5045098;28;20049;-84
2022/01/07 07:32:54;;;;;;;0.20;0.20;;;;;;;-0.88;100.00;100357.78;5050940;28;20653;-84
2022/01/07 07:38:29;;;;;;;0.20;0.20;;;;;;;-0.78;100.00;100351.19;5006446;28;20057;-84
2022/01/07 07:41:06;;;;;;;0.20;0.20;;;;;;;-0.80;100.00;100355.91;5040625;28;20065;-84
2022/01/07 07:43:39;;;;;;;0.20;0.20;;;;;;;-0.78;100.00;100361.88;5047182;28;20052;-83
2022/01/07 07:46:13;;;;;;;0.20;0.20;;;;;;;-0.78;100.00;100361.88;5047584;28;20049;-83
2022/01/07 07:48:47;;;;;;;0.20;0.20;;;;;;;-0.88;100.00;100343.63;5036833;28;20048;-84
2022/01/07 07:51:20;;;;;;;0.20;0.20;;;;;;;-0.74;100.00;100360.41;5058476;28;20075;-82
2022/01/07 07:53:54;;;;;;;0.20;0.20;;;;;;;-0.79;100.00;100357.56;5051270;28;21518;-83
2022/01/07 07:56:28;;;;;;;0.20;0.20;;;;;;;-0.75;100.00;100356.09;5050510;28;20045;-83
2022/01/07 07:58:58;;;;;;;0.13;0.13;;;;;;;-0.76;100.00;100357.97;5048150;28;20695;-84
2022/01/07 08:01:27;;;;;;;0.30;0.30;;;;;;;-0.74;100.00;100347.84;5052909;28;20068;-84
2022/01/07 08:04:00;;;;;;;0.20;0.20;;;;;;;-0.68;100.00;100359.53;5043376;28;20040;-83
2022/01/07 08:06:33;;;;;;;0.20;0.20;;;;;;;-0.67;100.00;100355.84;5050186;28;20057;-83
2022/01/07 08:09:06;;;;;;;0.20;0.20;;;;;;;-0.68;100.00;100356.88;5046312;28;20057;-84
2022/01/07 08:11:50;;;;;;;0.20;0.20;;;;;;;-0.68;100.00;100351.53;5053340;28;20365;-85
2022/01/07 08:17:14;;;;;;;0.20;0.20;;;;;;;-0.58;100.00;100343.03;5051427;28;20056;-81
2022/01/07 08:19:48;;;;;;;0.20;0.20;;;;;;;-0.64;100.00;100336.69;5046599;28;20060;-82
2022/01/07 08:22:21;;;;;;;0.20;0.20;;;;;;;-0.73;100.00;100338.81;5046548;28;20049;-84
2022/01/07 08:24:54;;;;;;;0.20;0.20;;;;;;;-0.67;100.00;100339.81;5052458;28;20559;-85
2022/01/07 08:27:29;;;;;;;0.10;0.10;;;;;;;-0.75;100.00;100337.38;5055501;28;20053;-85
2022/01/07 08:29:57;;;;;;;0.20;0.20;;;;;;;-0.67;100.00;100336.34;5049058;28;20413;-83
2022/01/07 08:35:16;;;;;;;0.20;0.20;;;;;;;-0.64;100.00;100319.88;5041349;28;20600;-85
2022/01/07 08:37:44;;;;;;;0.30;0.30;;;;;;;-0.69;100.00;100325.84;5032659;28;20068;-81
2022/01/07 08:40:13;;;;;;;0.20;0.20;;;;;;;-0.69;100.00;100318.66;5036764;28;20078;-84
2022/01/07 08:42:47;;;;;;;0.20;0.20;;;;;;;-0.56;100.00;100322.28;5042045;28;20052;-85
2022/01/07 08:45:21;;;;;;;0.20;0.20;;;;;;;-0.63;100.00;100321.50;5033399;28;20049;-83
2022/01/07 08:47:54;;;;;;;0.20;0.20;;;;;;;-0.61;100.00;100322.91;5033595;28;20053;-84
2022/01/07 08:50:27;;;;;;;0.20;0.20;;;;;;;-0.53;100.00;100311.16;5037146;28;20063;-86
2022/01/07 08:53:01;;;;;;;0.20;0.20;;;;;;;-0.61;100.00;100322.09;5036005;28;21223;-82
2022/01/07 08:55:34;;;;;;;0.20;0.20;;;;;;;-0.60;100.00;100321.88;5032918;28;20401;-82
2022/01/07 08:58:05;;;;;;;0.20;0.20;;;;;;;-0.61;100.00;100317.56;5032094;28;20057;-81
2022/01/07 09:00:34;;;;;;;0.20;0.20;;;;;;;-0.63;100.00;100319.63;5034941;28;20057;-83
2022/01/07 09:03:07;;;;;;;0.20;0.20;;;;;;;-0.49;100.00;100316.91;5038642;28;20044;-82
2022/01/07 09:05:35;;;;;;;0.20;0.20;;;;;;;-0.52;100.00;100318.94;5031750;28;20049;-83
2022/01/07 09:08:10;;;;;;;0.20;0.20;;;;;;;-0.53;100.00;100325.31;5033925;28;20055;-82
2022/01/07 09:10:38;;;;;;;0.20;0.20;;;;;;;-0.52;100.00;100321.63;5032587;28;21572;-83
2022/01/07 09:13:08;;;;;;;0.20;0.20;;;;;;;-0.52;100.00;100326.97;5043474;28;20040;-83
2022/01/07 09:15:42;;;;;;;0.30;0.30;;;;;;;-0.50;100.00;100323.28;5035364;28;20049;-84
2022/01/07 09:18:15;;;;;;;0.10;0.10;;;;;;;-0.52;100.00;100312.81;5039844;28;20057;-83
2022/01/07 09:20:49;;;;;;;0.20;0.20;;;;;;;-0.50;100.00;100309.91;5031790;28;20064;-83
2022/01/07 09:23:23;;;;;;;0.20;0.20;;;;;;;-0.55;100.00;100313.22;5036532;28;20822;-82
2022/01/07 09:25:56;;;;;;;0.20;0.20;;;;;;;-0.50;100.00;100310.72;5037683;28;20070;-82
2022/01/07 09:28:26;;;;;;;0.20;0.20;;;;;;;-0.56;100.00;100317.75;5031476;28;20056;-82
2022/01/07 09:30:59;;;;;;;0.10;0.10;;;;;;;-0.64;100.00;100311.84;5032197;28;20646;-81
2022/01/07 09:33:28;;;;;;;0.20;0.20;;;;;;;-0.60;100.00;100305.84;5033797;28;20074;-81
2022/01/07 09:36:01;;;;;;;0.20;0.20;;;;;;;-0.50;100.00;100305.38;5036317;28;20045;-82
2022/01/07 09:38:35;;;;;;;0.20;0.20;;;;;;;-0.53;100.00;100305.81;5037864;28;20064;-79
2022/01/07 09:41:08;;;;;;;0.20;0.20;;;;;;;-0.49;100.00;100311.56;5033338;28;20071;-80
2022/01/07 09:43:44;;;;;;;0.20;0.20;;;;;;;-0.49;100.00;100296.31;5027654;28;20674;-81
2022/01/07 09:46:15;;;;;;;0.20;0.20;;;;;;;-0.48;100.00;100292.63;5030281;28;20049;-83
2022/01/07 09:48:43;;;;;;;0.20;0.20;;;;;;;-0.50;100.00;100296.53;5030395;28;20053;-83
2022/01/07 09:51:17;;;;;;;0.20;0.20;;;;;;;-0.49;100.00;100293.66;5033926;28;20060;-82
2022/01/07 09:53:50;;;;;;;0.22;0.22;;;;;;;-0.48;100.00;100300.63;5037015;28;20060;-82
2022/01/07 09:56:23;;;;;;;0.20;0.20;;;;;;;-0.42;100.00;100299.75;5034484;28;20052;-82
2022/01/07 09:58:58;;;;;;;0.20;0.20;;;;;;;-0.43;100.00;100302.66;5032083;28;20055;-82
2022/01/07 10:01:31;;;;;;;0.20;0.20;;;;;;;-0.49;100.00;100287.50;5036830;28;20075;-81
2022/01/07 10:03:59;;;;;;;0.20;0.20;;;;;;;-0.47;100.00;100299.63;5032731;28;20482;-81
2022/01/07 10:06:32;;;;;;;0.20;0.20;;;;;;;-0.42;100.00;100307.78;5030220;28;20061;-81
2022/01/07 10:09:07;;;;;;;0.13;0.13;;;;;;;-0.43;100.00;100291.97;5031167;28;20068;-80
2022/01/07 10:11:36;;;;;;;0.13;0.13;;;;;;;-0.48;100.00;100286.44;5032954;28;20379;-80
2022/01/07 10:14:18;;;;;;;0.20;0.20;;;;;;;-0.48;100.00;100287.28;5038162;28;20063;-80
2022/01/07 10:16:53;;;;;;;0.20;0.20;;;;;;;-0.42;100.00;100286.41;5029633;28;20982;-81
2022/01/07 10:19:35;;;;;;;0.30;0.30;;;;;;;-0.32;100.00;100282.44;5031752;28;20045;-82
2022/01/07 10:22:10;;;;;;;0.20;0.20;;;;;;;-0.43;100.00;100286.63;5035009;28;20049;-81
2022/01/07 10:24:55;;;;;;;0.20;0.20;;;;;;;-0.49;100.00;100274.13;5034274;28;20796;-81
2022/01/07 10:27:35;;;;;;;0.20;0.20;;;;;;;-0.37;100.00;100285.75;5034105;28;20045;-82
2022/01/07 10:30:13;;;;;;;0.20;0.20;;;;;;;-0.41;100.00;100290.72;5034365;28;20063;-81
2022/01/07 10:32:47;;;;;;;0.20;0.20;;;;;;;-0.47;100.00;100286.25;5035231;28;21668;-81
2022/01/07 10:35:23;;;;;;;0.20;0.20;;;;;;;-0.50;100.00;100280.50;5029915;28;20061;-81
2022/01/07 10:37:58;;;;;;;0.20;0.20;;;;;;;-0.43;100.00;100289.28;5030681;28;20052;-81
2022/01/07 10:40:34;;;;;;;0.20;0.20;;;;;;;-0.47;100.00;100282.72;5032946;28;20649;-81
2022/01/07 10:43:13;;;;;;;0.20;0.20;;;;;;;-0.51;100.00;100274.34;5030106;28;20049;-80
2022/01/07 10:45:50;;;;;;;0.20;0.20;;;;;;;-0.52;100.00;100273.50;5031036;28;20041;-81
2022/01/07 10:48:35;;;;;;;0.20;0.20;;;;;;;-0.51;100.00;100266.31;5027909;28;20056;-80
2022/01/07 10:51:07;;;;;;;0.20;0.20;;;;;;;-0.51;100.00;100252.97;5031692;28;20378;-82
2022/01/07 10:53:41;;;;;;;0.20;0.20;;;;;;;-0.51;100.00;100266.31;5031775;28;20045;-82
2022/01/07 10:56:13;;;;;;;0.20;0.20;;;;;;;-0.50;100.00;100256.44;5037705;28;20060;-81
2022/01/07 10:59:03;;;;;;;0.20;0.20;;;;;;;-0.37;100.00;100257.16;5035182;28;20063;-81
2022/01/07 11:01:42;;;;;;;0.20;0.20;;;;;;;-0.37;100.00;100259.03;5037729;28;20777;-81
2022/01/07 11:04:17;;;;;;;0.20;0.20;;;;;;;-0.28;100.00;100251.53;5030346;28;20059;-81
2022/01/07 11:06:51;;;;;;;0.20;0.20;;;;;;;-0.40;100.00;100246.06;5027010;28;20060;-82
2022/01/07 11:09:25;;;;;;;0.20;0.20;;;;;;;-0.37;100.00;100249.13;5022865;28;20048;-81
2022/01/07 11:11:55;;;;;;;0.20;0.20;;;;;;;-0.42;100.00;100243.63;5020454;28;20041;-81
2022/01/07 11:14:29;;;;;;;0.20;0.20;;;;;;;-0.44;100.00;100247.53;5019207;28;20056;-80
2022/01/07 11:17:08;;;;;;;0.28;0.28;;;;;;;-0.42;100.00;100246.28;5022605;28;20048;-81
2022/01/07 11:19:44;;;;;;;0.20;0.20;;;;;;;-0.39;100.00;100243.22;5027031;28;20485;-80
2022/01/07 11:22:18;;;;;;;0.20;0.20;;;;;;;-0.41;100.00;100250.59;5025802;28;20060;-81
2022/01/07 11:24:54;;;;;;;0.20;0.20;;;;;;;-0.40;100.00;100249.59;5039851;28;20060;-80
2022/01/07 11:27:28;;;;;;;0.20;0.20;;;;;;;-0.29;100.00;100245.38;5028764;28;20049;-82
2022/01/07 11:30:14;;;;;;;0.10;0.10;;;;;;;-0.32;100.00;100248.47;5028093;28;20048;-81
2022/01/07 11:32:49;;;;;;;0.17;0.17;;;;;;;-0.25;100.00;100246.59;5015251;28;20119;-82
2022/01/07 11:35:45;;;;;;;0.20;0.20;;;;;;;-0.21;100.00;100249.63;5028767;28;20057;-80
2022/01/07 11:38:38;;;;;;;0.20;0.20;;;;;;;-0.21;100.00;100249.63;5027319;28;20061;-81
2022/01/07 11:41:11;;;;;;;0.20;0.20;;;;;;;-0.23;100.00;100236.47;5027962;28;21262;-81
2022/01/07 11:43:47;;;;;;;0.20;0.20;;;;;;;-0.14;100.00;100246.91;5031345;28;20064;-82
2022/01/07 11:46:38;;;;;;;0.20;0.20;;;;;;;-0.07;100.00;100239.63;5028818;28;20049;-82
2022/01/07 11:49:34;;;;;;;0.20;0.20;;;;;;;-0.07;100.00;100242.28;5030022;28;20524;-80
2022/01/07 11:52:33;;;;;;;0.20;0.20;;;;;;;-0.01;100.00;100238.75;5028357;28;20046;-83
2022/01/07 11:55:23;;;;;;;0.20;0.20;;;;;;;-0.01;100.00;100231.53;5031415;28;20098;-81